createdAt,value
2022-08-19T00:01:15.348Z,13.70
2022-08-19T00:04:57.407Z,13.40
2022-08-19T00:08:27.020Z,12.40
2022-08-19T00:11:56.752Z,13.30
2022-08-19T00:15:24.715Z,13.80
2022-08-19T00:18:52.919Z,13.80
2022-08-19T00:22:21.212Z,13.20
2022-08-19T00:25:48.785Z,12.10
2022-08-19T00:29:18.696Z,12.80
2022-08-19T00:32:45.618Z,13.00
2022-08-19T00:36:14.663Z,12.80
2022-08-19T00:39:41.831Z,12.30
2022-08-19T00:43:14.559Z,12.80
2022-08-19T00:46:44.120Z,13.50
2022-08-19T00:50:15.175Z,12.30
2022-08-19T00:53:44.740Z,12.40
2022-08-19T00:57:14.751Z,13.60
2022-08-19T01:00:41.949Z,13.20
2022-08-19T01:04:09.732Z,13.50
2022-08-19T01:07:38.556Z,13.10
2022-08-19T01:11:06.194Z,14.10
2022-08-19T01:14:39.485Z,13.50
2022-08-19T01:18:13.364Z,13.30
2022-08-19T01:21:44.508Z,12.70
2022-08-19T01:25:18.935Z,13.20
2022-08-19T01:28:48.591Z,12.60
2022-08-19T01:32:32.006Z,13.20
2022-08-19T01:36:08.487Z,13.30
2022-08-19T01:39:35.458Z,13.30
2022-08-19T01:43:04.290Z,13.50
2022-08-19T01:46:31.633Z,12.90
2022-08-19T01:50:00.582Z,12.60
2022-08-19T01:53:33.662Z,13.00
2022-08-19T01:57:06.563Z,13.60
2022-08-19T02:00:35.268Z,13.90
2022-08-19T02:04:02.315Z,13.60
2022-08-19T02:07:30.463Z,14.50
2022-08-19T02:10:58.071Z,14.60
2022-08-19T02:14:24.912Z,14.70
2022-08-19T02:17:52.840Z,14.00
2022-08-19T02:21:21.796Z,14.30
2022-08-19T02:24:49.209Z,14.50
2022-08-19T02:28:18.713Z,13.80
2022-08-19T02:31:46.130Z,13.80
2022-08-19T02:35:14.440Z,13.70
2022-08-19T02:38:41.888Z,12.80
2022-08-19T02:42:10.234Z,12.90
2022-08-19T02:45:40.543Z,13.00
2022-08-19T02:49:10.726Z,13.90
2022-08-19T02:52:38.404Z,14.30
2022-08-19T02:56:08.894Z,14.60
2022-08-19T02:59:36.969Z,15.10
2022-08-19T03:03:04.439Z,15.10
2022-08-19T03:06:31.746Z,15.00
2022-08-19T03:09:59.116Z,15.50
2022-08-19T03:13:26.616Z,16.10
2022-08-19T03:16:55.717Z,13.90
2022-08-19T03:20:23.048Z,14.80
2022-08-19T03:23:51.285Z,14.30
2022-08-19T03:27:18.885Z,14.40
2022-08-19T03:30:58.185Z,13.50
2022-08-19T03:34:31.889Z,13.60
2022-08-19T03:38:00.673Z,14.20
2022-08-19T03:41:34.222Z,13.60
2022-08-19T03:45:13.337Z,13.90
2022-08-19T03:48:41.884Z,14.70
2022-08-19T03:52:09.329Z,14.30
2022-08-19T03:55:36.532Z,12.80
2022-08-19T03:59:04.318Z,15.10
2022-08-19T04:02:31.754Z,15.70
2022-08-19T04:05:58.866Z,15.90
2022-08-19T04:09:25.935Z,15.10
2022-08-19T04:12:53.074Z,15.10
2022-08-19T04:16:21.161Z,15.40
2022-08-19T04:19:56.169Z,14.00
2022-08-19T04:23:23.109Z,14.90
2022-08-19T04:26:50.848Z,15.30
2022-08-19T04:30:20.500Z,13.90
2022-08-19T04:33:47.070Z,14.50
2022-08-19T04:37:15.325Z,14.40
2022-08-19T04:41:10.347Z,15.10
2022-08-19T04:44:46.425Z,13.90
2022-08-19T04:48:26.894Z,13.40
2022-08-19T04:51:57.107Z,14.50
2022-08-19T04:55:26.889Z,14.90
2022-08-19T04:58:55.254Z,15.60
2022-08-19T05:02:26.837Z,15.30
2022-08-19T05:05:54.458Z,14.80
2022-08-19T05:09:22.993Z,14.20
2022-08-19T05:12:49.988Z,15.90
2022-08-19T05:16:18.718Z,14.40
2022-08-19T05:20:02.994Z,14.90
2022-08-19T05:23:31.858Z,14.10
2022-08-19T05:27:00.295Z,13.10
2022-08-19T05:30:46.168Z,14.40
2022-08-19T05:34:20.096Z,13.60
2022-08-19T05:37:47.453Z,12.50
2022-08-19T05:41:18.003Z,12.70
2022-08-19T05:44:46.794Z,13.20
2022-08-19T05:48:14.034Z,12.90
2022-08-19T05:51:41.123Z,13.90
2022-08-19T05:55:10.598Z,12.60
2022-08-19T05:58:38.389Z,13.60
2022-08-19T06:02:07.744Z,13.70
2022-08-19T06:05:39.109Z,13.60
2022-08-19T06:09:16.494Z,13.10
2022-08-19T06:12:43.198Z,13.20
2022-08-19T06:16:10.601Z,12.50
2022-08-19T06:19:40.872Z,11.30
2022-08-19T06:23:11.017Z,11.10
2022-08-19T06:30:19.456Z,11.30
2022-08-19T06:33:47.487Z,9.60
2022-08-19T06:37:20.272Z,10.90
2022-08-19T06:40:47.539Z,11.10
2022-08-19T06:44:15.163Z,11.20
2022-08-19T06:47:47.374Z,11.00
2022-08-19T06:51:19.932Z,11.50
2022-08-19T06:54:55.429Z,10.80
2022-08-19T06:58:24.183Z,10.90
2022-08-19T07:02:04.363Z,11.20
2022-08-19T07:05:31.891Z,10.70
2022-08-19T07:09:00.535Z,11.10
2022-08-19T07:12:30.932Z,10.60
2022-08-19T07:15:58.139Z,10.30
2022-08-19T07:19:33.059Z,10.30
2022-08-19T07:23:01.709Z,9.70
2022-08-19T07:26:42.578Z,10.80
2022-08-19T07:30:14.605Z,10.10
2022-08-19T07:33:43.525Z,10.50
2022-08-19T07:37:12.509Z,9.30
2022-08-19T07:40:40.498Z,10.00
2022-08-19T07:44:10.814Z,9.50
2022-08-19T07:47:47.427Z,9.20
2022-08-19T07:51:35.902Z,9.90
2022-08-19T07:55:05.372Z,9.10
2022-08-19T07:58:33.169Z,9.50
2022-08-19T10:37:14.656Z,8.30
2022-08-19T10:40:43.075Z,7.30
2022-08-19T10:44:12.304Z,7.30
2022-08-19T10:47:41.424Z,8.00
2022-08-19T10:51:26.458Z,7.20
2022-08-19T10:55:11.806Z,6.80
2022-08-19T10:58:40.105Z,6.80
2022-08-19T11:02:13.399Z,7.40
2022-08-19T11:09:08.572Z,7.20
2022-08-19T11:12:36.032Z,7.00
2022-08-19T11:16:07.919Z,7.30
2022-08-19T11:19:59.518Z,6.90
2022-08-19T11:23:29.085Z,7.20
2022-08-19T11:27:03.905Z,7.10
2022-08-19T11:30:30.773Z,7.50
2022-08-19T11:33:58.244Z,6.60
2022-08-19T11:37:25.717Z,7.10
2022-08-19T11:41:00.823Z,6.90
2022-08-19T11:44:34.673Z,6.80
2022-08-19T11:48:04.795Z,7.20
2022-08-19T11:51:32.595Z,7.20
2022-08-19T11:55:00.281Z,7.00
2022-08-19T11:58:27.353Z,7.30
2022-08-19T12:01:55.101Z,6.90
2022-08-19T12:05:22.362Z,6.70
2022-08-19T12:08:49.889Z,6.30
2022-08-19T12:12:16.906Z,6.00
2022-08-19T12:15:46.176Z,6.30
2022-08-19T12:19:13.935Z,6.30
2022-08-19T12:22:49.878Z,6.00
2022-08-19T12:26:19.915Z,6.50
2022-08-19T12:29:46.552Z,7.30
2022-08-19T12:33:14.900Z,6.10
2022-08-19T12:36:41.867Z,6.80
2022-08-19T12:40:13.012Z,6.10
2022-08-19T12:43:40.913Z,6.10
2022-08-19T12:47:09.035Z,6.50
2022-08-19T12:50:37.174Z,6.00
2022-08-19T12:54:05.155Z,6.80
2022-08-19T12:57:33.470Z,5.90
2022-08-19T13:01:00.275Z,7.00
2022-08-19T13:04:27.544Z,7.00
2022-08-19T13:07:57.226Z,7.40
2022-08-19T13:11:26.750Z,6.50
2022-08-19T13:14:53.448Z,6.00
2022-08-19T13:18:20.893Z,6.30
2022-08-19T13:21:51.743Z,6.00
2022-08-19T13:25:28.071Z,5.80
2022-08-19T13:29:12.162Z,5.40
2022-08-19T13:32:56.325Z,5.40
2022-08-19T13:36:23.065Z,5.00
2022-08-19T13:39:49.846Z,5.90
2022-08-19T13:43:22.879Z,5.90
2022-08-19T13:46:54.247Z,5.40
2022-08-19T13:50:24.209Z,5.40
2022-08-19T13:54:03.163Z,5.20
2022-08-19T13:57:31.550Z,5.40
2022-08-19T14:01:00.405Z,5.50
2022-08-19T14:04:27.767Z,6.10
2022-08-19T14:07:55.061Z,5.60
2022-08-19T14:11:24.243Z,5.60
2022-08-19T14:14:51.153Z,5.70
2022-08-19T14:18:18.818Z,4.90
2022-08-19T14:21:45.922Z,5.40
2022-08-19T14:25:16.573Z,5.20
2022-08-19T14:28:44.182Z,10.80
2022-08-19T14:32:16.759Z,6.60
2022-08-19T14:35:46.048Z,5.50
2022-08-19T14:39:13.167Z,5.00
2022-08-19T14:42:40.713Z,6.80
2022-08-19T14:46:10.550Z,7.10
2022-08-19T14:49:43.106Z,5.50
2022-08-19T14:53:13.655Z,5.40
2022-08-19T14:56:44.587Z,5.00
2022-08-19T15:00:15.199Z,4.80
2022-08-19T15:03:42.789Z,4.90
2022-08-19T15:07:10.506Z,5.00
2022-08-19T15:10:37.469Z,5.80
2022-08-19T15:14:04.309Z,5.60
2022-08-19T15:17:32.388Z,5.30
2022-08-19T15:21:13.786Z,5.60
2022-08-19T15:24:47.810Z,5.40
2022-08-19T15:28:17.581Z,5.20
2022-08-19T15:31:47.897Z,6.00
2022-08-19T15:35:16.411Z,5.30
2022-08-19T15:38:46.077Z,6.00
2022-08-19T15:42:13.060Z,5.70
2022-08-19T15:45:55.329Z,5.50
2022-08-19T15:49:23.045Z,5.70
2022-08-19T15:52:52.366Z,5.30
2022-08-19T15:57:01.167Z,6.10
2022-08-19T16:00:45.943Z,5.30
2022-08-19T16:04:37.820Z,5.70
2022-08-19T16:08:04.724Z,5.40
2022-08-19T16:11:39.292Z,4.80
2022-08-19T16:15:08.252Z,5.00
2022-08-19T16:18:41.109Z,5.50
2022-08-19T16:22:09.254Z,5.30
2022-08-19T16:25:36.767Z,5.20
2022-08-19T16:29:09.105Z,5.20
2022-08-19T16:32:43.874Z,5.40
2022-08-19T16:36:14.392Z,5.70
2022-08-19T16:39:44.362Z,5.40
2022-08-19T16:43:13.092Z,5.80
2022-08-19T16:46:42.460Z,5.50
2022-08-19T16:50:12.572Z,5.20
2022-08-19T16:53:41.073Z,5.70
2022-08-19T16:57:09.147Z,6.20
2022-08-19T17:00:40.307Z,5.80
2022-08-19T17:04:08.567Z,5.90
2022-08-19T17:07:37.875Z,6.00
2022-08-19T17:11:18.074Z,6.20
2022-08-19T17:14:48.260Z,6.20
2022-08-19T17:18:21.802Z,6.60
2022-08-19T17:21:49.279Z,6.10
2022-08-19T17:25:17.153Z,6.70
2022-08-19T17:28:45.138Z,6.80
2022-08-19T17:32:12.858Z,6.80
2022-08-19T17:35:44.114Z,7.00
2022-08-19T17:39:15.185Z,7.20
2022-08-19T17:42:44.380Z,7.40
2022-08-19T17:46:25.656Z,6.90
2022-08-19T17:49:54.258Z,7.20
2022-08-19T17:53:22.281Z,7.50
2022-08-19T17:56:50.025Z,7.90
2022-08-19T18:00:19.856Z,9.80
2022-08-19T18:03:50.414Z,13.00
2022-08-19T18:07:21.804Z,12.50
2022-08-19T18:10:50.264Z,10.40
2022-08-19T18:14:19.041Z,11.20
2022-08-19T18:17:51.337Z,10.20
2022-08-19T18:21:19.232Z,9.90
2022-08-19T18:24:46.513Z,9.80
2022-08-19T18:28:14.957Z,9.50
2022-08-19T18:31:44.846Z,9.20
2022-08-19T18:35:20.538Z,8.40
2022-08-19T18:39:06.924Z,8.40
2022-08-19T18:42:53.673Z,8.20
2022-08-19T18:46:41.904Z,8.60
2022-08-19T18:50:13.889Z,8.30
2022-08-19T18:53:46.621Z,9.20
2022-08-19T19:00:46.104Z,9.20
2022-08-19T19:04:15.616Z,9.80
2022-08-19T19:07:44.419Z,9.90
2022-08-19T19:11:23.810Z,9.50
2022-08-19T19:14:53.475Z,9.90
2022-08-19T19:18:23.577Z,10.10
2022-08-19T19:22:00.154Z,10.00
2022-08-19T19:29:23.347Z,11.30
2022-08-19T19:32:51.818Z,11.00
2022-08-19T19:36:20.497Z,11.30
2022-08-19T19:39:51.852Z,10.40
2022-08-19T19:43:23.553Z,12.10
2022-08-19T19:47:00.475Z,10.80
2022-08-19T19:50:30.623Z,12.40
2022-08-19T19:54:02.396Z,14.30
2022-08-19T19:57:32.021Z,13.90
2022-08-19T20:01:09.548Z,14.80
2022-08-19T20:04:41.989Z,15.90
2022-08-19T20:08:27.402Z,15.20
2022-08-19T20:11:58.293Z,15.50
2022-08-19T20:15:30.490Z,14.90
2022-08-19T20:18:59.235Z,15.50
2022-08-19T20:22:29.682Z,15.00
2022-08-19T20:26:03.204Z,15.00
2022-08-19T20:29:38.882Z,15.70
2022-08-19T20:33:10.651Z,14.30
2022-08-19T20:36:45.336Z,14.50
2022-08-19T20:40:16.012Z,15.50
2022-08-19T20:43:48.736Z,14.50
2022-08-19T20:47:21.260Z,14.70
2022-08-19T20:50:49.175Z,14.80
2022-08-19T20:54:21.269Z,14.70
2022-08-19T20:57:51.244Z,13.70
2022-08-19T21:01:20.600Z,14.40
2022-08-19T21:04:53.248Z,14.40
2022-08-19T21:08:30.452Z,14.70
2022-08-19T21:11:59.419Z,15.80
2022-08-19T21:15:27.555Z,15.10
2022-08-19T21:19:01.414Z,15.30
2022-08-19T21:22:34.822Z,15.10
2022-08-19T21:26:03.280Z,15.00
2022-08-19T21:29:32.440Z,16.10
2022-08-19T21:33:01.319Z,15.80
2022-08-19T21:36:28.677Z,16.10
2022-08-19T21:40:01.909Z,15.60
2022-08-19T21:43:33.791Z,16.40
2022-08-19T21:47:10.625Z,15.80
2022-08-19T21:50:40.136Z,16.10
2022-08-19T21:54:14.073Z,18.20
2022-08-19T21:57:43.357Z,16.90
2022-08-19T22:01:13.271Z,17.20
2022-08-19T22:04:45.401Z,16.70
2022-08-19T22:08:20.537Z,16.40
2022-08-19T22:11:50.934Z,16.90
2022-08-19T22:15:21.965Z,17.50
2022-08-19T22:18:51.110Z,17.20
2022-08-19T22:22:24.355Z,17.60
2022-08-19T22:25:54.256Z,17.50
2022-08-19T22:29:33.727Z,17.20
2022-08-19T22:33:21.785Z,17.10
2022-08-19T22:36:53.010Z,17.40
2022-08-19T22:40:22.999Z,17.70
2022-08-19T22:43:54.387Z,17.30
2022-08-19T22:47:32.110Z,17.10
2022-08-19T22:51:22.838Z,18.20
2022-08-19T22:55:02.359Z,18.90
2022-08-19T22:58:31.812Z,18.00
2022-08-19T23:02:05.938Z,19.20
2022-08-19T23:05:37.160Z,19.20
2022-08-19T23:09:11.188Z,18.60
2022-08-19T23:12:48.030Z,19.00
2022-08-19T23:16:21.746Z,18.40
2022-08-19T23:19:51.156Z,21.10
2022-08-19T23:23:25.261Z,21.50
2022-08-19T23:27:12.022Z,21.30
2022-08-19T23:30:43.900Z,21.10
2022-08-19T23:34:16.115Z,21.40
2022-08-19T23:37:45.099Z,21.70
2022-08-19T23:41:15.233Z,20.80
2022-08-19T23:44:51.336Z,21.80
2022-08-19T23:48:20.102Z,21.40
2022-08-19T23:51:47.478Z,20.90
2022-08-19T23:55:16.498Z,22.50
2022-08-19T23:58:44.203Z,21.20
